Terminal Aerodrome Forecast
Issued by NWS Binghamton, NY

Home | Current Version | Previous Version | Text Only | Print | Product List | Glossary On
Versions: 1 2 3 4 5 6 7 8 9 10 11 12 13 14 15 16 17
000
FTUS41 KBGM 060526
TAFAVP
TAF
KAVP 060526Z 0606/0706 VRB03KT P6SM OVC080
     FM061200 03003KT P6SM -SHRA OVC040
     FM061500 VRB03KT P6SM OVC060
     FM062100 VRB03KT P6SM BKN100=

USA.gov is the U.S. government's official web portal to all federal, state and local government web resources and services.